createdAt,value
2019-02-27T00:02:06.153Z,25.97
2019-02-27T00:04:39.238Z,26.50
2019-02-27T00:07:12.318Z,27.13
2019-02-27T00:09:45.124Z,24.27
2019-02-27T00:12:19.399Z,26.13
2019-02-27T00:14:50.789Z,26.70
2019-02-27T00:17:23.937Z,23.97
2019-02-27T00:19:55.592Z,24.87
2019-02-27T00:22:27.161Z,24.13
2019-02-27T00:24:57.914Z,21.13
2019-02-27T00:27:28.670Z,20.20
2019-02-27T00:30:04.665Z,20.77
2019-02-27T00:32:35.734Z,22.10
2019-02-27T00:35:07.933Z,21.67
2019-02-27T00:37:40.619Z,22.70
2019-02-27T00:40:12.013Z,24.07
2019-02-27T00:42:43.782Z,21.90
2019-02-27T00:45:14.617Z,22.60
2019-02-27T00:47:46.849Z,23.07
2019-02-27T00:50:17.936Z,23.13
2019-02-27T00:52:50.864Z,22.17
2019-02-27T00:55:24.203Z,21.60
2019-02-27T00:57:55.607Z,22.27
2019-02-27T01:00:26.309Z,21.70
2019-02-27T01:02:57.942Z,19.07
2019-02-27T01:05:28.942Z,18.63
2019-02-27T01:08:00.060Z,17.60
2019-02-27T01:10:32.389Z,17.80
2019-02-27T01:13:03.706Z,18.67
2019-02-27T01:15:34.538Z,19.07
2019-02-27T01:18:05.325Z,17.80
2019-02-27T01:20:36.647Z,17.10
2019-02-27T01:23:10.878Z,18.70
2019-02-27T01:25:40.780Z,18.47
2019-02-27T01:28:11.674Z,17.77
2019-02-27T01:30:43.496Z,18.93
2019-02-27T01:33:15.077Z,17.10
2019-02-27T01:35:46.093Z,17.37
2019-02-27T01:38:17.809Z,16.87
2019-02-27T01:40:51.530Z,16.93
2019-02-27T01:43:21.689Z,17.23
2019-02-27T01:45:54.286Z,16.03
2019-02-27T01:48:25.981Z,17.40
2019-02-27T01:50:57.481Z,15.30
2019-02-27T01:53:28.340Z,16.23
2019-02-27T01:56:02.409Z,15.33
2019-02-27T01:58:35.632Z,16.70
2019-02-27T02:01:08.177Z,15.43
2019-02-27T02:03:41.345Z,15.33
2019-02-27T02:06:12.683Z,15.33
2019-02-27T02:08:48.047Z,16.37
2019-02-27T02:11:17.897Z,16.33
2019-02-27T02:14:11.452Z,15.67
2019-02-27T02:16:56.673Z,15.70
2019-02-27T02:20:04.998Z,15.27
2019-02-27T02:23:14.722Z,15.63
2019-02-27T02:25:50.635Z,16.27
2019-02-27T02:29:04.544Z,15.50
2019-02-27T02:31:53.929Z,16.23
2019-02-27T02:34:39.908Z,15.77
2019-02-27T02:37:33.770Z,14.93
2019-02-27T02:41:00.406Z,15.27
2019-02-27T02:43:43.120Z,16.40
2019-02-27T02:46:44.801Z,15.77
2019-02-27T02:49:14.605Z,15.43
2019-02-27T02:51:57.795Z,15.77
2019-02-27T02:55:12.011Z,16.00
2019-02-27T02:58:12.870Z,16.37
2019-02-27T03:00:53.087Z,16.10
2019-02-27T03:03:46.312Z,16.70
2019-02-27T03:06:35.972Z,17.13
2019-02-27T03:09:51.313Z,15.27
2019-02-27T03:12:39.731Z,14.10
2019-02-27T03:16:07.375Z,15.47
2019-02-27T03:19:06.539Z,16.30
2019-02-27T03:21:50.401Z,14.87
2019-02-27T03:24:49.962Z,15.33
2019-02-27T03:28:10.811Z,14.87
2019-02-27T03:31:32.205Z,15.70
2019-02-27T03:34:21.631Z,15.47
2019-02-27T03:37:38.243Z,15.13
2019-02-27T03:40:25.904Z,14.80
2019-02-27T03:43:23.688Z,15.43
2019-02-27T03:45:58.586Z,14.27
2019-02-27T03:49:05.762Z,14.43
2019-02-27T03:52:09.019Z,15.03
2019-02-27T03:54:50.212Z,15.30
2019-02-27T03:57:54.885Z,15.37
2019-02-27T04:00:46.035Z,14.27
2019-02-27T04:03:54.207Z,14.97
2019-02-27T04:07:17.034Z,14.73
2019-02-27T04:09:54.890Z,14.33
2019-02-27T04:12:22.356Z,14.43
2019-02-27T04:14:53.375Z,14.50
2019-02-27T04:17:29.801Z,16.13
2019-02-27T04:20:00.552Z,15.67
2019-02-27T04:22:36.223Z,15.63
2019-02-27T04:25:06.999Z,15.33
2019-02-27T04:27:38.600Z,15.70
2019-02-27T04:30:14.677Z,15.57
2019-02-27T04:32:48.700Z,16.60
2019-02-27T04:35:18.498Z,16.63
2019-02-27T04:37:54.127Z,16.50
2019-02-27T04:40:25.058Z,16.53
2019-02-27T04:42:56.962Z,15.73
2019-02-27T04:45:30.385Z,16.00
2019-02-27T04:48:02.056Z,15.57
2019-02-27T04:50:33.674Z,16.13
2019-02-27T04:53:05.414Z,16.83
2019-02-27T04:55:40.621Z,16.33
2019-02-27T04:58:11.952Z,17.20
2019-02-27T05:00:43.565Z,16.17
2019-02-27T05:03:15.095Z,15.53
2019-02-27T05:05:47.342Z,15.70
2019-02-27T05:08:18.969Z,16.73
2019-02-27T05:10:51.240Z,14.60
2019-02-27T05:13:23.176Z,15.00
2019-02-27T05:15:55.216Z,15.07
2019-02-27T05:18:29.565Z,15.07
2019-02-27T05:21:00.925Z,15.37
2019-02-27T05:23:33.591Z,15.27
2019-02-27T05:26:04.084Z,15.37
2019-02-27T05:28:38.187Z,16.10
2019-02-27T05:31:10.370Z,15.17
2019-02-27T05:33:42.714Z,15.80
2019-02-27T05:36:14.505Z,16.33
2019-02-27T05:38:47.504Z,19.00
2019-02-27T05:41:18.674Z,16.60
2019-02-27T05:43:50.443Z,16.57
2019-02-27T05:46:21.379Z,16.67
2019-02-27T05:48:53.354Z,16.90
2019-02-27T05:51:25.193Z,16.53
2019-02-27T05:53:58.493Z,16.67
2019-02-27T05:56:33.767Z,15.63
2019-02-27T05:59:07.636Z,16.37
2019-02-27T06:01:39.216Z,15.67
2019-02-27T06:04:13.608Z,16.03
2019-02-27T06:06:45.685Z,16.40
2019-02-27T06:09:17.481Z,16.13
2019-02-27T06:11:48.470Z,16.50
2019-02-27T06:14:21.291Z,16.23
2019-02-27T06:16:51.989Z,16.83
2019-02-27T06:19:23.523Z,17.13
2019-02-27T06:21:56.383Z,16.73
2019-02-27T06:24:27.293Z,15.93
2019-02-27T06:26:58.381Z,18.20
2019-02-27T06:29:30.097Z,18.40
2019-02-27T06:32:01.972Z,17.53
2019-02-27T06:34:34.834Z,18.50
2019-02-27T06:37:06.993Z,17.20
2019-02-27T06:39:39.584Z,17.03
2019-02-27T06:42:10.592Z,17.43
2019-02-27T06:44:42.488Z,18.23
2019-02-27T06:47:17.071Z,16.90
2019-02-27T06:49:51.623Z,16.80
2019-02-27T06:52:21.783Z,16.27
2019-02-27T06:54:56.458Z,17.57
2019-02-27T06:57:29.089Z,16.30
2019-02-27T07:00:02.188Z,16.53
2019-02-27T07:02:36.617Z,16.50
2019-02-27T07:05:13.241Z,17.17
2019-02-27T07:07:49.972Z,15.83
2019-02-27T07:10:22.979Z,15.50
2019-02-27T07:13:00.376Z,16.17
2019-02-27T07:15:32.563Z,15.97
2019-02-27T07:18:06.021Z,14.47
2019-02-27T07:20:36.213Z,13.37
2019-02-27T07:23:07.768Z,15.37
2019-02-27T07:25:42.027Z,15.13
2019-02-27T07:28:13.229Z,13.23
2019-02-27T07:30:45.617Z,13.83
2019-02-27T07:33:17.279Z,14.47
2019-02-27T07:35:48.837Z,14.60
2019-02-27T07:38:21.608Z,14.23
2019-02-27T07:40:53.393Z,13.97
2019-02-27T07:43:25.410Z,16.77
2019-02-27T07:45:56.820Z,16.40
2019-02-27T07:48:28.155Z,16.03
2019-02-27T07:50:59.677Z,14.97
2019-02-27T07:53:31.283Z,13.90
2019-02-27T07:56:04.442Z,14.93
2019-02-27T07:58:35.802Z,13.87
2019-02-27T08:01:07.612Z,15.43
2019-02-27T08:03:39.135Z,14.87
2019-02-27T08:06:10.140Z,13.60
2019-02-27T08:08:40.895Z,12.83
2019-02-27T08:11:13.652Z,13.97
2019-02-27T08:13:44.447Z,13.67
2019-02-27T08:16:15.518Z,13.93
2019-02-27T08:18:47.203Z,15.07
2019-02-27T08:21:19.934Z,13.90
2019-02-27T08:23:50.779Z,16.60
2019-02-27T08:26:22.238Z,15.03
2019-02-27T08:28:53.327Z,15.80
2019-02-27T08:31:27.930Z,15.67
2019-02-27T08:33:57.793Z,15.30
2019-02-27T08:36:29.421Z,17.10
2019-02-27T08:39:01.557Z,15.37
2019-02-27T08:41:34.919Z,16.60
2019-02-27T08:44:05.892Z,16.60
2019-02-27T08:46:37.724Z,19.10
2019-02-27T08:49:09.713Z,17.53
2019-02-27T08:51:42.166Z,17.77
2019-02-27T08:54:13.670Z,19.70
2019-02-27T08:56:47.186Z,18.47
2019-02-27T08:59:17.261Z,18.23
2019-02-27T09:01:48.078Z,21.17
2019-02-27T09:04:18.752Z,17.87
2019-02-27T09:06:51.641Z,18.20
2019-02-27T09:09:23.249Z,20.30
2019-02-27T09:11:58.085Z,22.93
2019-02-27T09:14:29.574Z,22.33
2019-02-27T09:17:01.110Z,22.50
2019-02-27T09:19:32.735Z,22.53
2019-02-27T09:22:03.239Z,24.43
2019-02-27T09:24:34.310Z,24.47
2019-02-27T09:27:05.721Z,23.87
2019-02-27T09:29:37.516Z,25.03
2019-02-27T09:32:09.262Z,24.10
2019-02-27T09:34:41.757Z,23.97
2019-02-27T09:37:13.983Z,23.13
2019-02-27T09:39:47.660Z,24.37
2019-02-27T09:42:19.703Z,24.60
2019-02-27T09:44:52.356Z,25.03
2019-02-27T09:47:25.848Z,23.23
2019-02-27T09:49:56.743Z,25.60
2019-02-27T09:52:30.105Z,25.08
2019-02-27T09:55:02.104Z,25.45
2019-02-27T09:57:35.357Z,25.12
2019-02-27T10:00:26.720Z,24.50
2019-02-27T10:02:58.348Z,24.52
2019-02-27T10:05:30.257Z,23.60
2019-02-27T10:08:02.037Z,24.07
2019-02-27T10:10:33.765Z,24.13
2019-02-27T10:13:05.176Z,23.53
2019-02-27T10:15:37.094Z,23.15
2019-02-27T10:18:09.306Z,24.47
2019-02-27T10:20:40.830Z,23.23
2019-02-27T10:23:13.210Z,21.10
2019-02-27T10:25:44.900Z,21.87
2019-02-27T10:28:16.567Z,20.93
2019-02-27T10:30:50.888Z,23.20
2019-02-27T10:33:22.351Z,23.87
2019-02-27T10:35:53.726Z,24.77
2019-02-27T10:38:26.172Z,24.67
2019-02-27T10:40:58.837Z,24.13
2019-02-27T10:43:30.333Z,27.00
2019-02-27T10:46:02.050Z,25.05
2019-02-27T10:48:33.828Z,26.20
2019-02-27T10:51:05.146Z,27.90
2019-02-27T10:53:37.150Z,25.13
2019-02-27T10:56:08.672Z,25.57
2019-02-27T10:58:40.270Z,28.10
2019-02-27T11:01:11.820Z,27.03
2019-02-27T11:03:43.428Z,27.53
2019-02-27T11:06:15.044Z,28.00
2019-02-27T11:08:46.630Z,28.37
2019-02-27T11:11:18.126Z,29.10
2019-02-27T11:13:51.737Z,27.70
2019-02-27T11:16:24.212Z,27.60
2019-02-27T11:18:55.287Z,27.93
2019-02-27T11:21:27.101Z,28.30
2019-02-27T11:23:59.828Z,28.73
2019-02-27T11:26:33.336Z,28.53
2019-02-27T11:29:04.843Z,29.97
2019-02-27T11:31:35.608Z,28.87
2019-02-27T11:34:07.867Z,27.73
2019-02-27T11:36:40.055Z,28.73
2019-02-27T11:39:12.892Z,27.33
2019-02-27T11:41:46.093Z,28.67
2019-02-27T11:44:18.419Z,28.93
2019-02-27T11:46:58.431Z,28.37
2019-02-27T11:49:23.226Z,29.63
2019-02-27T11:51:54.156Z,31.87
2019-02-27T11:54:26.543Z,30.77
2019-02-27T11:56:58.190Z,30.43
2019-02-27T11:59:29.216Z,29.77
2019-02-27T12:02:02.611Z,33.63
2019-02-27T12:04:35.284Z,34.80
2019-02-27T12:07:06.765Z,35.97
2019-02-27T12:09:38.821Z,34.60
2019-02-27T12:12:10.513Z,35.30
2019-02-27T12:14:42.295Z,35.47
2019-02-27T12:17:14.102Z,35.70
2019-02-27T12:19:45.859Z,35.13
2019-02-27T12:22:17.489Z,36.40
2019-02-27T12:24:50.359Z,36.50
2019-02-27T12:27:47.449Z,35.20
2019-02-27T12:29:56.625Z,36.43
2019-02-27T12:32:27.851Z,35.77
2019-02-27T12:34:58.771Z,34.43
2019-02-27T12:37:34.067Z,36.67
2019-02-27T12:40:04.938Z,36.93
2019-02-27T12:42:40.287Z,35.50
2019-02-27T12:45:13.371Z,35.93
2019-02-27T12:47:44.411Z,37.07
2019-02-27T12:50:17.676Z,37.37
2019-02-27T12:52:49.134Z,37.10
2019-02-27T12:55:21.553Z,36.13
2019-02-27T12:57:54.462Z,35.77
2019-02-27T13:00:27.995Z,36.73
2019-02-27T13:03:00.296Z,37.87
2019-02-27T13:05:32.136Z,40.30
2019-02-27T13:08:03.685Z,38.03
2019-02-27T13:10:35.889Z,37.23
2019-02-27T13:13:06.815Z,36.67
2019-02-27T13:15:41.001Z,33.73
2019-02-27T13:18:12.567Z,33.20
2019-02-27T13:20:45.721Z,34.07
2019-02-27T13:23:18.748Z,32.80
2019-02-27T13:25:50.192Z,32.93
2019-02-27T13:28:21.290Z,32.30
2019-02-27T13:30:53.157Z,32.57
2019-02-27T13:33:25.030Z,32.90
2019-02-27T13:35:56.746Z,32.30
2019-02-27T13:38:32.770Z,31.50
2019-02-27T13:41:03.726Z,30.70
2019-02-27T13:43:35.474Z,31.03
2019-02-27T13:46:07.240Z,30.27
2019-02-27T13:48:39.839Z,30.70
2019-02-27T13:51:11.560Z,28.70
2019-02-27T13:53:44.829Z,31.37
2019-02-27T13:56:16.518Z,30.87
2019-02-27T13:58:47.991Z,30.27
2019-02-27T14:01:19.541Z,27.93
2019-02-27T14:03:50.853Z,27.87
2019-02-27T14:06:22.644Z,29.23
2019-02-27T14:08:55.312Z,28.73
2019-02-27T14:11:27.172Z,28.13
2019-02-27T14:14:00.578Z,28.63
2019-02-27T14:16:34.773Z,26.90
2019-02-27T14:19:06.156Z,28.20
2019-02-27T14:21:39.630Z,25.40
2019-02-27T14:24:10.795Z,27.00
2019-02-27T14:26:42.459Z,27.80
2019-02-27T14:29:13.841Z,26.63
2019-02-27T14:31:45.490Z,27.13
2019-02-27T14:34:17.014Z,25.87
2019-02-27T14:36:55.214Z,26.30
2019-02-27T14:39:29.689Z,26.37
2019-02-27T14:42:04.109Z,26.37
2019-02-27T14:44:38.435Z,27.13
2019-02-27T14:47:10.111Z,25.27
2019-02-27T14:49:44.564Z,25.70
2019-02-27T14:52:22.738Z,24.47
2019-02-27T14:54:54.075Z,24.60
2019-02-27T14:57:26.083Z,23.93
2019-02-27T14:59:57.513Z,25.30
2019-02-27T15:02:28.890Z,24.13
2019-02-27T15:05:06.096Z,25.10
2019-02-27T15:07:34.040Z,24.50
2019-02-27T15:10:07.278Z,25.53
2019-02-27T15:12:40.595Z,25.23
2019-02-27T15:15:14.908Z,28.00
2019-02-27T15:17:46.390Z,27.43
2019-02-27T15:20:18.583Z,27.83
2019-02-27T15:22:52.570Z,27.07
2019-02-27T15:25:23.188Z,27.27
2019-02-27T15:27:58.869Z,28.53
2019-02-27T15:30:30.577Z,27.57
2019-02-27T15:33:04.875Z,25.57
2019-02-27T15:35:39.318Z,26.87
2019-02-27T15:38:13.670Z,27.37
2019-02-27T15:40:45.379Z,25.97
2019-02-27T15:43:18.163Z,25.33
2019-02-27T15:45:49.887Z,27.47
2019-02-27T15:48:21.654Z,26.57
2019-02-27T15:50:56.411Z,26.43
2019-02-27T15:53:26.630Z,27.13
2019-02-27T15:55:58.240Z,25.97
2019-02-27T15:58:30.034Z,27.10
2019-02-27T16:01:02.301Z,27.20
2019-02-27T16:03:37.516Z,27.77
2019-02-27T16:06:09.282Z,27.60
2019-02-27T16:08:41.938Z,29.20
2019-02-27T16:11:21.138Z,28.90
2019-02-27T16:13:52.839Z,27.00
2019-02-27T16:16:26.026Z,27.10
2019-02-27T16:19:00.608Z,28.10
2019-02-27T16:21:32.162Z,29.67
2019-02-27T16:24:05.687Z,29.07
2019-02-27T16:26:37.202Z,29.27
2019-02-27T16:29:08.705Z,29.53
2019-02-27T16:31:40.865Z,29.97
2019-02-27T16:34:13.337Z,27.67
2019-02-27T16:36:46.927Z,29.80
2019-02-27T16:39:18.673Z,29.83
2019-02-27T16:41:51.681Z,29.20
2019-02-27T16:44:24.148Z,29.90
2019-02-27T16:46:55.476Z,33.33
2019-02-27T16:49:27.541Z,30.00
2019-02-27T16:51:58.998Z,31.07
2019-02-27T16:54:30.631Z,32.17
2019-02-27T16:57:03.130Z,32.00
2019-02-27T16:59:34.834Z,31.23
2019-02-27T17:02:06.035Z,32.17
2019-02-27T17:04:38.806Z,33.37
2019-02-27T17:07:14.391Z,32.30
2019-02-27T17:09:45.994Z,32.73
2019-02-27T17:12:18.539Z,33.17
2019-02-27T17:14:49.892Z,32.40
2019-02-27T17:17:23.251Z,33.07
2019-02-27T17:19:55.384Z,33.43
2019-02-27T17:22:30.245Z,34.70
2019-02-27T17:25:01.200Z,36.20
2019-02-27T17:27:36.993Z,38.60
2019-02-27T17:30:21.610Z,37.33
2019-02-27T17:32:53.157Z,38.07
2019-02-27T17:35:25.570Z,39.10
2019-02-27T17:37:58.421Z,39.47
2019-02-27T17:40:36.426Z,38.97
2019-02-27T17:43:14.183Z,39.97
2019-02-27T17:45:54.607Z,43.43
2019-02-27T17:48:27.944Z,46.23
2019-02-27T17:50:59.921Z,47.07
2019-02-27T17:53:31.973Z,50.70
2019-02-27T17:58:54.321Z,53.40
2019-02-27T18:01:26.303Z,52.47
2019-02-27T18:03:57.616Z,53.83
2019-02-27T18:06:31.182Z,49.93
2019-02-27T18:09:00.989Z,52.50
2019-02-27T18:11:34.429Z,53.83
2019-02-27T18:14:09.882Z,50.40
2019-02-27T18:16:40.999Z,50.93
2019-02-27T18:19:16.362Z,51.63
2019-02-27T18:21:44.956Z,50.90
2019-02-27T18:24:16.439Z,47.80
2019-02-27T18:26:56.073Z,46.13
2019-02-27T18:29:27.697Z,49.83
2019-02-27T18:32:06.154Z,53.83
2019-02-27T18:34:33.300Z,51.80
2019-02-27T18:37:06.411Z,52.43
2019-02-27T18:39:39.233Z,50.00
2019-02-27T18:42:12.201Z,51.67
2019-02-27T18:44:43.679Z,49.53
2019-02-27T18:47:16.969Z,47.70
2019-02-27T18:49:49.026Z,49.03
2019-02-27T18:52:21.834Z,49.13
2019-02-27T18:54:54.697Z,48.80
2019-02-27T18:57:27.311Z,47.77
2019-02-27T19:00:01.384Z,47.50
2019-02-27T19:02:34.362Z,47.33
2019-02-27T19:05:06.857Z,45.83
2019-02-27T19:07:39.318Z,45.90
2019-02-27T19:10:10.642Z,48.10
2019-02-27T19:12:44.075Z,49.33
2019-02-27T19:15:18.561Z,47.13
2019-02-27T19:17:50.410Z,46.70
2019-02-27T19:20:25.141Z,46.90
2019-02-27T19:22:57.187Z,46.03
2019-02-27T19:25:34.086Z,43.70
2019-02-27T19:28:05.391Z,43.53
2019-02-27T19:30:38.786Z,44.23
2019-02-27T19:33:09.681Z,42.87
2019-02-27T19:35:41.646Z,44.27
2019-02-27T19:38:14.935Z,44.00
2019-02-27T19:40:47.088Z,42.43
2019-02-27T19:43:21.101Z,42.90
2019-02-27T19:46:01.306Z,45.13
2019-02-27T19:48:34.300Z,44.63
2019-02-27T19:51:06.799Z,43.63
2019-02-27T19:53:39.587Z,42.83
2019-02-27T19:56:13.417Z,42.03
2019-02-27T19:58:44.160Z,40.33
2019-02-27T20:01:18.057Z,40.97
2019-02-27T20:03:49.632Z,40.60
2019-02-27T20:06:21.260Z,40.57
2019-02-27T20:08:55.974Z,35.13
2019-02-27T20:11:27.392Z,35.87
2019-02-27T20:14:02.097Z,37.87
2019-02-27T20:16:33.337Z,36.23
2019-02-27T20:19:04.335Z,36.33
2019-02-27T20:21:36.368Z,34.97
2019-02-27T20:24:14.202Z,35.37
2019-02-27T20:26:44.731Z,35.27
2019-02-27T20:29:18.059Z,30.87
2019-02-27T20:31:48.453Z,29.93
2019-02-27T20:34:19.989Z,28.27
2019-02-27T20:36:50.884Z,29.63
2019-02-27T20:39:24.343Z,28.63
2019-02-27T20:41:56.414Z,25.70
2019-02-27T20:44:28.126Z,26.67
2019-02-27T20:47:01.338Z,26.87
2019-02-27T20:49:34.279Z,27.17
2019-02-27T20:52:05.558Z,26.60
2019-02-27T20:54:36.124Z,24.47
2019-02-27T20:57:10.210Z,24.30
2019-02-27T20:59:41.387Z,25.80
2019-02-27T21:02:12.125Z,25.47
2019-02-27T21:04:42.746Z,25.10
2019-02-27T21:07:22.016Z,26.13
2019-02-27T21:09:46.749Z,24.83
2019-02-27T21:12:17.443Z,25.20
2019-02-27T21:14:48.077Z,25.47
2019-02-27T21:17:20.866Z,26.57
2019-02-27T21:19:52.511Z,24.10
2019-02-27T21:22:25.215Z,25.20
2019-02-27T21:24:55.716Z,26.43
2019-02-27T21:27:28.470Z,25.37
2019-02-27T21:30:01.045Z,25.53
2019-02-27T21:32:36.179Z,26.00
2019-02-27T21:35:07.436Z,25.23
2019-02-27T21:37:44.387Z,27.03
2019-02-27T21:40:14.595Z,24.70
2019-02-27T21:42:45.873Z,25.67
2019-02-27T21:45:16.804Z,25.87
2019-02-27T21:47:51.760Z,25.53
2019-02-27T21:50:22.153Z,25.73
2019-02-27T21:52:54.466Z,26.40
2019-02-27T21:55:25.307Z,26.53
2019-02-27T21:57:58.098Z,26.03
2019-02-27T22:00:29.483Z,25.53
2019-02-27T22:03:05.016Z,26.93
2019-02-27T22:05:42.484Z,25.60
2019-02-27T22:08:08.580Z,25.60
2019-02-27T22:10:39.371Z,26.37
2019-02-27T22:13:10.892Z,23.70
2019-02-27T22:15:42.339Z,24.70
2019-02-27T22:18:15.052Z,24.10
2019-02-27T22:20:46.248Z,25.50
2019-02-27T22:23:17.601Z,24.73
2019-02-27T22:25:49.682Z,23.63
2019-02-27T22:28:21.159Z,24.17
2019-02-27T22:30:52.661Z,24.60
2019-02-27T22:33:24.119Z,23.40
2019-02-27T22:35:55.859Z,25.03
2019-02-27T22:38:28.861Z,22.03
2019-02-27T22:41:00.464Z,22.60
2019-02-27T22:43:35.130Z,24.57
2019-02-27T22:46:07.139Z,23.57
2019-02-27T22:48:40.081Z,21.50
2019-02-27T22:51:13.508Z,23.33
2019-02-27T22:53:45.641Z,23.33
2019-02-27T22:56:18.211Z,22.73
2019-02-27T22:58:51.595Z,23.10
2019-02-27T23:01:49.393Z,20.73
2019-02-27T23:04:18.485Z,21.03
2019-02-27T23:06:50.410Z,21.30
2019-02-27T23:09:22.266Z,22.27
2019-02-27T23:11:53.676Z,20.63
2019-02-27T23:14:26.181Z,22.10
2019-02-27T23:17:00.580Z,22.03
2019-02-27T23:19:30.949Z,21.57
2019-02-27T23:22:06.297Z,21.40
2019-02-27T23:24:37.664Z,18.90
2019-02-27T23:27:09.094Z,19.93
2019-02-27T23:29:40.846Z,18.27
2019-02-27T23:32:12.848Z,20.30
2019-02-27T23:34:43.982Z,19.10
2019-02-27T23:37:15.182Z,19.70
2019-02-27T23:39:46.995Z,20.07
2019-02-27T23:42:18.620Z,20.23
2019-02-27T23:44:50.433Z,19.33
2019-02-27T23:47:22.548Z,19.37
2019-02-27T23:50:03.136Z,18.67
2019-02-27T23:52:38.414Z,18.33
2019-02-27T23:55:10.050Z,18.77
2019-02-27T23:57:43.792Z,18.40
